Time;durP1;ratioP1;P1;durP2;ratioP2;P2;SDS_P1;SDS_P2;PMS_P1;PMS_P2;Temp;Humidity;BMP_temperature;BMP_pressure;BME280_temperature;BME280_humidity;BME280_pressure;Samples;Min_cycle;Max_cycle;Signal;HPM_P1;HPM_P2
2022/03/17 00:00:56;;;;;;;22.77;19.27;;;10.60;87.00;;;;;;5001211;28;20053;-67
2022/03/17 00:03:22;;;;;;;23.33;19.10;;;10.60;87.00;;;;;;4993192;28;20505;-67
2022/03/17 00:05:49;;;;;;;20.98;18.70;;;10.70;87.00;;;;;;5028097;28;20056;-68
2022/03/17 00:08:16;;;;;;;23.83;19.73;;;10.70;86.80;;;;;;4994016;28;20041;-67
2022/03/17 00:10:42;;;;;;;26.80;20.33;;;10.70;86.90;;;;;;5008824;28;20052;-67
2022/03/17 00:13:08;;;;;;;23.88;19.85;;;10.70;87.00;;;;;;4998621;28;20052;-68
2022/03/17 00:15:33;;;;;;;21.08;18.85;;;10.60;87.10;;;;;;4995388;28;20117;-69
2022/03/17 00:17:59;;;;;;;23.27;19.63;;;10.60;87.10;;;;;;4993015;28;20562;-67
2022/03/17 00:20:25;;;;;;;22.60;19.85;;;10.60;87.40;;;;;;5022968;28;20046;-68
2022/03/17 00:22:51;;;;;;;25.30;20.05;;;10.60;87.40;;;;;;4997002;28;20077;-67
2022/03/17 00:25:17;;;;;;;25.30;19.95;;;10.60;87.50;;;;;;5028243;28;20049;-67
2022/03/17 00:27:43;;;;;;;22.65;19.42;;;10.60;87.30;;;;;;4995543;28;20038;-68
2022/03/17 00:30:10;;;;;;;24.55;20.23;;;10.70;87.50;;;;;;4995898;28;20103;-68
2022/03/17 00:32:38;;;;;;;23.95;19.50;;;10.60;87.40;;;;;;5027955;28;20046;-68
2022/03/17 00:37:52;;;;;;;24.38;20.33;;;10.60;87.60;;;;;;5032785;28;20141;-67
2022/03/17 00:40:19;;;;;;;25.50;19.17;;;10.70;87.60;;;;;;4998972;28;20471;-67
2022/03/17 00:42:44;;;;;;;24.08;20.25;;;10.60;87.60;;;;;;5002619;28;20034;-68
2022/03/17 00:45:12;;;;;;;26.02;20.55;;;10.60;87.70;;;;;;5029419;28;20053;-67
2022/03/17 00:47:39;;;;;;;22.70;20.17;;;10.60;87.90;;;;;;5000438;28;20053;-68
2022/03/17 00:50:06;;;;;;;23.85;21.10;;;10.60;88.00;;;;;;4999160;28;20093;-67
2022/03/17 00:52:32;;;;;;;22.92;20.30;;;10.60;88.10;;;;;;4998426;28;20038;-67
2022/03/17 00:54:58;;;;;;;25.38;19.25;;;10.60;88.30;;;;;;4999039;28;20038;-67
2022/03/17 00:57:24;;;;;;;25.13;20.90;;;10.60;88.30;;;;;;5000381;28;20069;-67
2022/03/17 00:59:49;;;;;;;24.63;21.08;;;10.60;88.20;;;;;;4996608;28;20480;-68
2022/03/17 01:02:16;;;;;;;28.17;21.52;;;10.60;88.40;;;;;;5014314;28;20125;-67
2022/03/17 01:04:42;;;;;;;23.38;20.88;;;10.60;88.30;;;;;;4998456;28;20050;-67
2022/03/17 01:07:08;;;;;;;21.80;19.02;;;10.60;88.50;;;;;;4998502;28;20041;-67
2022/03/17 01:09:34;;;;;;;25.88;22.05;;;10.60;88.50;;;;;;5000208;28;20054;-67
2022/03/17 01:12:00;;;;;;;22.85;20.30;;;10.60;88.50;;;;;;4997668;28;20170;-67
2022/03/17 01:14:27;;;;;;;26.30;21.38;;;10.60;88.50;;;;;;5001194;28;20034;-68
2022/03/17 01:16:53;;;;;;;27.42;21.65;;;10.60;88.80;;;;;;4997106;28;20042;-68
2022/03/17 01:19:20;;;;;;;25.48;21.98;;;10.60;88.80;;;;;;4999371;28;20069;-68
2022/03/17 01:21:46;;;;;;;27.15;20.83;;;10.60;88.90;;;;;;4998032;28;20409;-68
2022/03/17 01:24:13;;;;;;;24.85;20.60;;;10.60;88.80;;;;;;4999606;28;20556;-68
2022/03/17 01:26:38;;;;;;;25.60;20.33;;;10.60;88.80;;;;;;5001988;28;20073;-68
2022/03/17 01:29:04;;;;;;;26.52;21.42;;;10.60;88.60;;;;;;5031111;28;20109;-68
2022/03/17 01:31:30;;;;;;;27.55;21.90;;;10.60;88.80;;;;;;4994542;28;20046;-68
2022/03/17 01:33:56;;;;;;;22.98;20.42;;;10.60;88.80;;;;;;4997120;28;20498;-68
2022/03/17 01:36:22;;;;;;;23.52;20.30;;;10.60;89.20;;;;;;5000589;28;20034;-68
2022/03/17 01:38:47;;;;;;;23.10;20.60;;;10.60;89.20;;;;;;4994310;28;20031;-68
2022/03/17 01:41:14;;;;;;;26.30;22.15;;;10.60;89.00;;;;;;5000218;28;20058;-68
2022/03/17 01:43:40;;;;;;;25.10;21.55;;;10.70;88.70;;;;;;5000104;28;20042;-68
2022/03/17 01:46:05;;;;;;;24.58;20.83;;;10.70;88.90;;;;;;5001063;28;20481;-68
2022/03/17 01:48:31;;;;;;;23.05;20.55;;;10.60;89.10;;;;;;4999921;28;20048;-68
2022/03/17 01:50:57;;;;;;;22.83;20.35;;;10.60;89.10;;;;;;5031612;28;20034;-68
2022/03/17 01:53:23;;;;;;;25.17;22.10;;;10.60;89.20;;;;;;4998459;28;20035;-68
2022/03/17 01:55:49;;;;;;;24.13;20.83;;;10.60;89.40;;;;;;4997868;28;20042;-68
2022/03/17 01:58:17;;;;;;;24.90;22.08;;;10.60;89.80;;;;;;4999836;28;20041;-68
2022/03/17 02:00:43;;;;;;;23.90;21.40;;;10.60;90.10;;;;;;5002474;28;20065;-68
2022/03/17 02:03:09;;;;;;;26.85;23.98;;;10.60;90.50;;;;;;4995179;28;20042;-68
2022/03/17 02:05:35;;;;;;;26.05;22.80;;;10.50;91.00;;;;;;4996636;28;20146;-68
2022/03/17 02:08:01;;;;;;;24.88;22.10;;;10.50;91.40;;;;;;4996876;28;20120;-68
2022/03/17 02:13:08;;;;;;;26.60;22.13;;;10.40;91.60;;;;;;5030796;28;20704;-68
2022/03/17 02:13:13;;;;;;;24.95;21.80;;;10.30;92.10;;;;;;5031551;28;20039;-68
2022/03/17 02:15:39;;;;;;;27.95;22.60;;;10.30;92.00;;;;;;5002614;28;20037;-68
2022/03/17 02:18:08;;;;;;;29.35;23.40;;;10.20;92.00;;;;;;4992272;28;20084;-68
2022/03/17 02:20:36;;;;;;;26.95;22.80;;;10.20;92.40;;;;;;4998406;28;20153;-68
2022/03/17 02:25:50;;;;;;;25.85;22.85;;;10.20;92.70;;;;;;4998449;28;20064;-68
2022/03/17 02:28:16;;;;;;;27.40;23.15;;;10.20;92.90;;;;;;5001074;28;20053;-68
2022/03/17 02:30:42;;;;;;;27.45;24.48;;;10.10;93.00;;;;;;4996320;28;20127;-68
2022/03/17 02:33:10;;;;;;;27.80;23.58;;;10.10;93.10;;;;;;4999266;28;20546;-68
2022/03/17 02:35:37;;;;;;;25.23;22.52;;;10.20;93.20;;;;;;5000206;28;20543;-68
2022/03/17 02:38:04;;;;;;;26.95;23.58;;;10.20;93.20;;;;;;4995388;28;20070;-68
2022/03/17 02:40:32;;;;;;;26.00;23.15;;;10.20;93.40;;;;;;5002027;28;20041;-68
2022/03/17 02:42:58;;;;;;;25.65;22.90;;;10.20;93.50;;;;;;4995170;28;20490;-68
2022/03/17 02:45:24;;;;;;;29.27;23.35;;;10.20;93.70;;;;;;5029417;28;20038;-68
2022/03/17 02:47:50;;;;;;;27.02;23.83;;;10.20;93.70;;;;;;4996197;28;20085;-68
2022/03/17 02:50:17;;;;;;;26.73;23.88;;;10.20;93.90;;;;;;4996999;28;20038;-68
2022/03/17 02:52:44;;;;;;;26.80;23.95;;;10.20;93.80;;;;;;4995916;28;20034;-68
2022/03/17 02:55:14;;;;;;;27.30;23.95;;;10.20;94.00;;;;;;4999242;28;20510;-68
2022/03/17 02:57:40;;;;;;;26.05;23.25;;;10.20;94.00;;;;;;4998222;28;20065;-68
2022/03/17 03:00:08;;;;;;;27.38;23.45;;;10.30;94.10;;;;;;5028985;28;20057;-68
2022/03/17 03:02:34;;;;;;;26.05;23.27;;;10.30;94.10;;;;;;4996566;28;20104;-68
2022/03/17 03:05:00;;;;;;;26.23;23.52;;;10.30;94.10;;;;;;4995899;28;20037;-68
2022/03/17 03:07:25;;;;;;;26.70;24.00;;;10.30;94.20;;;;;;5000593;28;20058;-68
2022/03/17 03:09:51;;;;;;;27.33;24.17;;;10.30;94.10;;;;;;4994755;28;20173;-68
2022/03/17 03:12:17;;;;;;;27.15;24.35;;;10.30;94.20;;;;;;4997497;28;20117;-68
2022/03/17 03:14:43;;;;;;;26.98;24.27;;;10.30;94.30;;;;;;4998118;28;20038;-68
2022/03/17 03:17:09;;;;;;;26.27;23.65;;;10.30;94.40;;;;;;4994719;28;20501;-68
2022/03/17 03:19:35;;;;;;;28.60;25.50;;;10.30;94.40;;;;;;4997765;28;20052;-68
2022/03/17 03:22:01;;;;;;;27.02;24.15;;;10.30;94.40;;;;;;4994072;28;20469;-68
2022/03/17 03:24:27;;;;;;;27.02;24.13;;;10.40;94.40;;;;;;4999912;28;20087;-68
2022/03/17 03:26:52;;;;;;;29.88;26.70;;;10.40;94.50;;;;;;4993864;28;20045;-68
2022/03/17 03:29:27;;;;;;;26.67;23.70;;;10.40;94.50;;;;;;4994542;28;20030;-68
2022/03/17 03:31:56;;;;;;;27.27;24.38;;;10.40;94.50;;;;;;4994012;28;20413;-68
2022/03/17 03:34:22;;;;;;;27.27;24.58;;;10.50;94.50;;;;;;4999092;28;20034;-68
2022/03/17 03:39:34;;;;;;;27.17;24.25;;;10.50;94.50;;;;;;4996879;28;20091;-68
2022/03/17 03:42:01;;;;;;;28.13;24.77;;;10.50;94.50;;;;;;5018186;28;20453;-68
2022/03/17 03:44:27;;;;;;;28.58;25.20;;;10.60;94.40;;;;;;4997458;28;20034;-68
2022/03/17 03:46:52;;;;;;;28.15;25.10;;;10.60;94.40;;;;;;4997352;28;20454;-68
2022/03/17 03:49:18;;;;;;;27.45;24.75;;;10.60;94.50;;;;;;4995955;28;20049;-68
2022/03/17 03:51:44;;;;;;;31.13;26.40;;;10.60;94.50;;;;;;4995404;28;20445;-68
2022/03/17 03:54:13;;;;;;;27.90;24.92;;;10.60;94.50;;;;;;4995541;28;20038;-68
2022/03/17 03:56:40;;;;;;;28.33;25.33;;;10.60;94.50;;;;;;4994990;28;20034;-68
2022/03/17 03:59:08;;;;;;;29.77;26.63;;;10.70;94.50;;;;;;4997658;28;20041;-68
2022/03/17 04:01:34;;;;;;;29.65;25.67;;;10.70;94.50;;;;;;4993566;28;20050;-68
2022/03/17 04:04:01;;;;;;;29.90;26.73;;;10.70;94.60;;;;;;5028210;28;20060;-68
2022/03/17 04:06:27;;;;;;;30.73;27.55;;;10.70;94.70;;;;;;4993415;28;20346;-68
2022/03/17 04:08:53;;;;;;;30.48;27.40;;;10.70;94.90;;;;;;4996818;28;20035;-68
2022/03/17 04:11:19;;;;;;;29.30;26.08;;;10.70;95.10;;;;;;4997931;28;20040;-68
2022/03/17 04:13:44;;;;;;;32.22;28.83;;;10.60;95.40;;;;;;4995647;28;20046;-68
2022/03/17 04:16:10;;;;;;;33.33;29.92;;;10.70;95.80;;;;;;5028092;28;20565;-68
2022/03/17 04:18:36;;;;;;;33.40;29.77;;;10.70;96.30;;;;;;4994930;28;20510;-68
2022/03/17 04:21:01;;;;;;;35.53;31.65;;;10.60;96.80;;;;;;4993734;28;20033;-68
2022/03/17 04:23:27;;;;;;;35.92;32.08;;;10.50;97.50;;;;;;4999926;28;20080;-68
2022/03/17 04:25:52;;;;;;;35.67;31.85;;;10.50;98.60;;;;;;4995759;28;20460;-68
2022/03/17 04:28:18;;;;;;;37.75;31.75;;;10.50;99.40;;;;;;4997328;28;20496;-68
2022/03/17 04:30:45;;;;;;;38.90;34.10;;;10.40;99.90;;;;;;4996906;28;20505;-68
2022/03/17 04:33:10;;;;;;;39.35;33.85;;;10.40;99.90;;;;;;4992428;28;20391;-68
2022/03/17 04:35:36;;;;;;;40.50;35.13;;;10.40;99.90;;;;;;4996917;28;20056;-67
2022/03/17 04:38:02;;;;;;;41.47;35.10;;;10.30;99.90;;;;;;4997208;28;20037;-67
2022/03/17 04:40:27;;;;;;;40.83;36.58;;;10.30;99.90;;;;;;4993888;28;20203;-67
2022/03/17 04:42:53;;;;;;;46.05;38.65;;;10.30;99.90;;;;;;4993084;28;20088;-68
2022/03/17 04:45:19;;;;;;;43.53;37.22;;;10.30;99.90;;;;;;4997403;28;20030;-67
2022/03/17 04:47:45;;;;;;;39.97;35.60;;;10.20;99.90;;;;;;4995177;28;20103;-68
2022/03/17 04:50:11;;;;;;;45.67;38.92;;;10.10;99.90;;;;;;4994525;28;20108;-68
2022/03/17 04:55:22;;;;;;;48.75;39.08;;;10.00;99.90;;;;;;4992958;28;20529;-70
2022/03/17 04:57:47;;;;;;;52.80;40.80;;;10.00;99.90;;;;;;4991845;28;20524;-70
2022/03/17 05:00:14;;;;;;;47.85;38.65;;;9.90;99.90;;;;;;5021079;28;20070;-70
2022/03/17 05:02:39;;;;;;;47.17;38.13;;;9.90;99.90;;;;;;5031316;28;20080;-70
2022/03/17 05:05:05;;;;;;;49.25;38.55;;;9.90;99.90;;;;;;4994429;28;20069;-69
2022/03/17 05:07:31;;;;;;;40.75;31.08;;;9.90;99.90;;;;;;4995150;28;20058;-68
2022/03/17 05:09:57;;;;;;;21.02;17.40;;;9.90;99.90;;;;;;4994723;28;20057;-69
2022/03/17 05:12:23;;;;;;;13.93;11.70;;;9.80;99.90;;;;;;4994286;28;20069;-69
2022/03/17 05:14:48;;;;;;;12.38;10.50;;;9.60;99.90;;;;;;5027312;28;20091;-69
2022/03/17 05:17:14;;;;;;;9.63;8.63;;;9.50;99.90;;;;;;5024494;28;20121;-69
2022/03/17 05:19:40;;;;;;;13.13;10.18;;;9.30;99.90;;;;;;4995111;28;20073;-69
2022/03/17 05:22:05;;;;;;;11.15;9.27;;;9.20;99.90;;;;;;5029420;28;20761;-69
2022/03/17 05:24:32;;;;;;;8.98;8.05;;;9.10;99.90;;;;;;5033012;28;20408;-69
2022/03/17 05:26:58;;;;;;;8.25;7.20;;;9.10;99.90;;;;;;4999644;28;20050;-69
2022/03/17 05:29:24;;;;;;;12.15;10.68;;;8.90;99.90;;;;;;5031062;28;20433;-69
2022/03/17 05:31:49;;;;;;;6.45;5.85;;;8.80;99.90;;;;;;5027527;28;20054;-69
2022/03/17 05:34:15;;;;;;;7.60;6.78;;;8.70;99.90;;;;;;4984556;28;20042;-69
2022/03/17 05:36:41;;;;;;;8.27;6.80;;;8.60;99.90;;;;;;5030167;28;20446;-69
2022/03/17 05:39:07;;;;;;;8.25;7.28;;;8.50;99.90;;;;;;4998251;28;20521;-69
2022/03/17 05:41:32;;;;;;;11.32;8.35;;;8.40;99.90;;;;;;4996151;28;20053;-69
2022/03/17 05:43:58;;;;;;;13.18;8.30;;;8.30;99.90;;;;;;4997807;28;20053;-69
2022/03/17 05:46:25;;;;;;;14.25;8.63;;;8.30;99.90;;;;;;4995003;28;20046;-69
2022/03/17 05:48:52;;;;;;;16.00;8.80;;;8.20;99.90;;;;;;4999179;28;20050;-68
2022/03/17 05:51:17;;;;;;;13.38;8.82;;;8.10;99.90;;;;;;4998636;28;20034;-68
2022/03/17 05:53:43;;;;;;;12.88;9.02;;;8.20;99.90;;;;;;4998752;28;20050;-69
2022/03/17 05:56:08;;;;;;;17.60;10.32;;;8.10;99.90;;;;;;5000884;28;20497;-68
2022/03/17 05:58:34;;;;;;;12.55;8.52;;;8.10;99.90;;;;;;5001797;28;20569;-68
2022/03/17 06:01:00;;;;;;;16.38;9.68;;;8.00;99.90;;;;;;4999103;28;20073;-69
2022/03/17 06:03:26;;;;;;;15.77;9.45;;;8.10;99.90;;;;;;5013740;28;20046;-68
2022/03/17 06:05:51;;;;;;;17.23;9.52;;;8.00;99.90;;;;;;4996188;28;20038;-68
2022/03/17 06:08:17;;;;;;;13.70;8.43;;;8.00;99.90;;;;;;4999326;28;20381;-68
2022/03/17 06:10:43;;;;;;;17.75;9.32;;;7.90;99.90;;;;;;5030892;28;20173;-68
2022/03/17 06:13:08;;;;;;;13.13;8.45;;;8.00;99.90;;;;;;4994763;28;20041;-68
2022/03/17 06:15:35;;;;;;;14.95;8.82;;;8.00;99.90;;;;;;5032358;28;20050;-69
2022/03/17 06:18:05;;;;;;;12.88;8.70;;;7.90;99.90;;;;;;4997839;28;20125;-69
2022/03/17 06:20:34;;;;;;;16.13;9.20;;;7.90;99.90;;;;;;5002901;28;20468;-69
2022/03/17 06:23:01;;;;;;;19.08;9.13;;;7.90;99.90;;;;;;4999898;28;20054;-69
2022/03/17 06:25:30;;;;;;;13.48;7.72;;;7.90;99.90;;;;;;5007558;28;20111;-69
2022/03/17 06:27:56;;;;;;;13.35;7.80;;;7.90;99.90;;;;;;5030670;28;20315;-69
2022/03/17 06:30:24;;;;;;;12.52;7.22;;;8.00;99.90;;;;;;5003085;28;20122;-69
2022/03/17 06:32:50;;;;;;;14.30;7.78;;;7.90;99.90;;;;;;5003904;28;20041;-69
2022/03/17 06:35:24;;;;;;;16.65;7.45;;;7.90;99.90;;;;;;5008117;28;20047;-69
2022/03/17 06:37:52;;;;;;;15.70;7.27;;;7.90;99.90;;;;;;4985460;28;20054;-69
2022/03/17 06:40:19;;;;;;;15.65;6.75;;;7.90;99.90;;;;;;5006345;28;20513;-69
2022/03/17 06:42:46;;;;;;;13.50;6.22;;;7.90;99.90;;;;;;5001479;28;20113;-69
2022/03/17 06:45:13;;;;;;;15.95;5.93;;;7.90;99.90;;;;;;5007428;28;20046;-69
2022/03/17 06:47:39;;;;;;;14.13;6.38;;;7.90;99.90;;;;;;5004218;28;20049;-69
2022/03/17 06:50:07;;;;;;;19.27;6.18;;;7.90;99.90;;;;;;5005567;28;20049;-69
2022/03/17 06:52:33;;;;;;;12.30;4.78;;;7.80;99.90;;;;;;5009705;28;20375;-69
2022/03/17 06:54:59;;;;;;;14.15;5.68;;;7.90;99.90;;;;;;5004960;28;20050;-69
2022/03/17 06:57:25;;;;;;;16.60;5.25;;;7.90;99.90;;;;;;5007957;28;20049;-69
2022/03/17 06:59:51;;;;;;;10.02;4.13;;;7.80;99.90;;;;;;5003960;28;20432;-69
2022/03/17 07:02:17;;;;;;;10.95;3.20;;;7.80;99.90;;;;;;5004060;28;20107;-69
2022/03/17 07:04:44;;;;;;;10.77;3.38;;;7.80;99.90;;;;;;5004209;28;20081;-69
2022/03/17 07:07:10;;;;;;;16.35;3.30;;;7.80;99.90;;;;;;4997706;28;20044;-69
2022/03/17 07:09:36;;;;;;;10.98;2.88;;;7.80;99.90;;;;;;4997519;28;20060;-69
2022/03/17 07:12:03;;;;;;;9.77;2.60;;;7.80;99.90;;;;;;4996026;28;20065;-69
2022/03/17 07:14:29;;;;;;;13.75;2.80;;;7.90;99.90;;;;;;5026029;28;20323;-69
2022/03/17 07:16:55;;;;;;;11.43;2.40;;;7.90;99.90;;;;;;4996671;28;20113;-68
2022/03/17 07:19:21;;;;;;;13.38;2.20;;;7.90;99.90;;;;;;5005234;28;20403;-68
2022/03/17 07:21:46;;;;;;;11.43;2.45;;;7.90;99.90;;;;;;5005298;28;20033;-69
2022/03/17 07:24:12;;;;;;;11.65;2.35;;;7.90;99.90;;;;;;5007426;28;20049;-69
2022/03/17 07:26:41;;;;;;;13.85;2.42;;;7.90;99.90;;;;;;5005047;28;20517;-69
2022/03/17 07:29:08;;;;;;;8.82;2.10;;;7.90;99.90;;;;;;5004003;28;20046;-69
2022/03/17 07:31:34;;;;;;;11.45;1.90;;;7.90;99.90;;;;;;5005968;28;20104;-68
2022/03/17 07:34:01;;;;;;;12.38;2.08;;;7.80;99.90;;;;;;5002622;28;20054;-68
2022/03/17 07:36:28;;;;;;;13.80;2.70;;;7.80;99.90;;;;;;5004517;28;20509;-69
2022/03/17 07:38:58;;;;;;;12.82;2.13;;;7.80;99.90;;;;;;5002470;28;20042;-69
2022/03/17 07:41:25;;;;;;;10.02;1.40;;;7.80;99.90;;;;;;5006483;28;20045;-68
2022/03/17 07:43:51;;;;;;;13.55;2.10;;;7.70;99.90;;;;;;5003258;28;20386;-68
2022/03/17 07:46:18;;;;;;;14.63;2.20;;;7.70;99.90;;;;;;5009248;28;20042;-68
2022/03/17 07:48:44;;;;;;;9.90;1.20;;;7.80;99.90;;;;;;5004091;28;20052;-68
2022/03/17 07:51:10;;;;;;;14.52;2.35;;;7.80;99.90;;;;;;5008311;28;20052;-68
2022/03/17 07:53:37;;;;;;;6.10;1.20;;;7.80;99.90;;;;;;4998265;28;20030;-69
2022/03/17 07:56:03;;;;;;;18.30;2.05;;;7.80;99.90;;;;;;4992129;28;20069;-69
2022/03/17 07:58:29;;;;;;;9.32;1.70;;;7.80;99.90;;;;;;4998906;28;20462;-69
2022/03/17 08:00:56;;;;;;;10.45;1.55;;;7.80;99.90;;;;;;4993274;28;20042;-69
2022/03/17 08:03:23;;;;;;;9.55;1.35;;;7.70;99.90;;;;;;4999512;28;20046;-68
2022/03/17 08:05:49;;;;;;;7.88;1.25;;;7.80;99.90;;;;;;5006831;28;20038;-68
2022/03/17 08:08:16;;;;;;;10.80;1.77;;;7.80;99.90;;;;;;5005233;28;20037;-68
2022/03/17 08:10:42;;;;;;;13.45;1.45;;;7.80;99.90;;;;;;4999805;28;20038;-68
2022/03/17 08:13:09;;;;;;;10.18;1.58;;;7.80;99.90;;;;;;5000901;28;20502;-68
2022/03/17 08:15:38;;;;;;;11.27;1.60;;;7.80;99.90;;;;;;5005082;28;20502;-68
2022/03/17 08:18:06;;;;;;;12.77;2.30;;;7.80;99.90;;;;;;5002783;28;20039;-68
2022/03/17 08:20:32;;;;;;;11.25;1.55;;;7.80;99.90;;;;;;5034027;28;20054;-68
2022/03/17 08:22:58;;;;;;;13.80;2.28;;;7.70;99.90;;;;;;5000066;28;20054;-68
2022/03/17 08:25:24;;;;;;;13.32;1.70;;;7.70;99.90;;;;;;5001226;28;20049;-69
2022/03/17 08:27:54;;;;;;;12.90;2.03;;;7.70;99.90;;;;;;5001499;28;20042;-68
2022/03/17 08:30:21;;;;;;;17.15;2.55;;;7.70;99.90;;;;;;4999782;28;20069;-68
2022/03/17 08:32:47;;;;;;;12.25;2.13;;;7.70;99.90;;;;;;4998252;28;20073;-68
2022/03/17 08:35:14;;;;;;;12.40;1.98;;;7.70;99.90;;;;;;4997855;28;20078;-69
2022/03/17 08:37:45;;;;;;;12.40;2.15;;;7.60;99.90;;;;;;5026542;28;20053;-69
2022/03/17 08:40:13;;;;;;;15.85;2.15;;;7.70;99.90;;;;;;4997573;28;20045;-68
2022/03/17 08:42:40;;;;;;;8.68;1.20;;;7.70;99.90;;;;;;4991643;28;20046;-69
2022/03/17 08:49:18;;;;;;;11.10;1.75;;;7.70;99.90;;;;;;4997641;28;20404;-68
2022/03/17 08:50:41;;;;;;;11.85;1.60;;;7.70;99.90;;;;;;5027566;28;20124;-68
2022/03/17 08:53:08;;;;;;;12.98;1.25;;;7.70;99.90;;;;;;4993152;28;20027;-68
2022/03/17 08:55:34;;;;;;;13.18;1.70;;;7.70;99.90;;;;;;4999949;28;20397;-68
2022/03/17 08:58:00;;;;;;;11.05;2.00;;;7.70;99.90;;;;;;4996420;28;20145;-69
2022/03/17 09:00:26;;;;;;;11.18;1.92;;;7.70;99.90;;;;;;5004211;28;20512;-68
2022/03/17 09:02:55;;;;;;;11.38;1.92;;;7.70;99.90;;;;;;5033021;28;20042;-68
2022/03/17 09:05:21;;;;;;;12.73;1.60;;;7.70;99.90;;;;;;5003154;28;20057;-68
2022/03/17 09:07:47;;;;;;;14.35;2.78;;;7.70;99.90;;;;;;5001867;28;20046;-68
2022/03/17 09:10:13;;;;;;;13.52;2.17;;;7.80;99.90;;;;;;5005664;28;20038;-68
2022/03/17 09:12:38;;;;;;;13.23;2.22;;;7.80;99.90;;;;;;5004376;28;20488;-68
2022/03/17 09:15:05;;;;;;;12.90;1.52;;;7.90;99.90;;;;;;5005422;28;20481;-68
2022/03/17 09:17:31;;;;;;;11.52;2.08;;;8.10;99.90;;;;;;5005678;28;20061;-68
2022/03/17 09:19:57;;;;;;;14.18;2.00;;;8.20;99.90;;;;;;5005966;28;20045;-68
2022/03/17 09:22:23;;;;;;;12.50;1.73;;;8.20;99.90;;;;;;5003278;28;20422;-68
2022/03/17 09:24:48;;;;;;;6.90;1.55;;;8.30;99.90;;;;;;5003788;28;20470;-68
2022/03/17 09:27:15;;;;;;;12.90;1.88;;;8.40;99.90;;;;;;5005501;28;20037;-68
2022/03/17 09:29:41;;;;;;;15.20;2.22;;;8.40;99.90;;;;;;5001874;28;20043;-68
2022/03/17 09:32:09;;;;;;;10.25;1.60;;;8.30;99.90;;;;;;4997036;28;20049;-68
2022/03/17 09:34:36;;;;;;;12.48;2.03;;;8.20;99.90;;;;;;5004411;28;20042;-68
2022/03/17 09:37:02;;;;;;;11.88;2.17;;;8.20;99.90;;;;;;4999768;28;20026;-68
2022/03/17 09:39:47;;;;;;;7.63;1.38;;;8.10;99.90;;;;;;4994687;28;20054;-68
2022/03/17 09:42:19;;;;;;;13.85;1.85;;;8.20;99.90;;;;;;4998447;28;20037;-68
2022/03/17 09:44:46;;;;;;;7.60;1.10;;;8.30;99.90;;;;;;4999180;28;20034;-68
2022/03/17 09:47:18;;;;;;;15.32;2.30;;;8.30;99.90;;;;;;4996272;28;20121;-68
2022/03/17 09:49:46;;;;;;;14.05;1.60;;;8.30;99.90;;;;;;5001673;28;20046;-68
2022/03/17 09:52:14;;;;;;;11.98;1.75;;;8.40;99.90;;;;;;5030580;28;20401;-68
2022/03/17 09:54:43;;;;;;;13.63;2.33;;;8.50;99.90;;;;;;4997717;28;20393;-68
2022/03/17 09:57:09;;;;;;;9.50;1.85;;;8.40;99.90;;;;;;5001212;28;20048;-68
2022/03/17 09:59:35;;;;;;;13.23;1.85;;;8.40;99.90;;;;;;4998345;28;20038;-68
2022/03/17 10:02:02;;;;;;;20.25;2.50;;;8.50;99.90;;;;;;5003989;28;20057;-68
2022/03/17 10:04:32;;;;;;;13.15;1.95;;;8.50;99.90;;;;;;5003956;28;20046;-68
2022/03/17 10:07:00;;;;;;;12.05;1.85;;;8.70;99.90;;;;;;5005205;28;20652;-68
2022/03/17 10:09:28;;;;;;;11.48;1.75;;;8.90;99.90;;;;;;5001869;28;20053;-68
2022/03/17 10:12:01;;;;;;;12.82;2.25;;;9.20;99.90;;;;;;5005301;28;20056;-68
2022/03/17 10:14:48;;;;;;;11.70;2.00;;;9.50;99.90;;;;;;5002431;28;20045;-68
2022/03/17 10:17:36;;;;;;;13.18;1.58;;;10.10;99.90;;;;;;5006622;28;20120;-68
2022/03/17 10:20:18;;;;;;;9.00;1.20;;;11.40;99.70;;;;;;5000480;28;20129;-68
2022/03/17 10:22:47;;;;;;;10.30;1.50;;;12.40;95.40;;;;;;5001888;28;20070;-68
2022/03/17 10:25:16;;;;;;;11.57;1.63;;;13.40;94.80;;;;;;5003518;28;20053;-68
2022/03/17 10:27:46;;;;;;;6.65;1.40;;;13.40;92.40;;;;;;5000853;28;20044;-68
2022/03/17 10:30:21;;;;;;;9.23;1.52;;;12.90;91.70;;;;;;4995773;28;20057;-68
2022/03/17 10:32:58;;;;;;;11.32;2.17;;;12.50;89.60;;;;;;5004154;28;20539;-68
2022/03/17 10:35:35;;;;;;;9.65;1.20;;;12.40;90.50;;;;;;4996298;28;20042;-68
2022/03/17 10:38:10;;;;;;;9.07;1.35;;;13.20;91.70;;;;;;4983692;28;20046;-68
2022/03/17 10:40:36;;;;;;;9.77;1.50;;;14.30;87.20;;;;;;4995093;28;20050;-68
2022/03/17 10:43:15;;;;;;;11.13;1.88;;;14.90;85.00;;;;;;5000895;28;20041;-68
2022/03/17 10:45:42;;;;;;;8.90;1.38;;;14.50;76.80;;;;;;5002727;28;20471;-66
2022/03/17 10:48:08;;;;;;;9.65;1.50;;;14.00;82.60;;;;;;5002969;28;20081;-68
2022/03/17 10:50:42;;;;;;;7.65;1.05;;;14.00;81.50;;;;;;5000100;28;20035;-68
2022/03/17 10:53:08;;;;;;;;;;;14.10;80.40;;;;;;5037861;28;20057;-68
2022/03/17 10:55:35;;;;;;;9.57;1.20;;;14.30;76.70;;;;;;4999248;28;19917;-68
2022/03/17 10:58:11;;;;;;;10.80;1.80;;;14.30;80.60;;;;;;5002337;28;20054;-69
2022/03/17 11:00:49;;;;;;;9.93;1.45;;;14.90;79.20;;;;;;5002482;28;20125;-67
2022/03/17 11:03:16;;;;;;;9.68;1.88;;;14.90;73.30;;;;;;5027710;28;20050;-66
2022/03/17 11:05:42;;;;;;;8.70;1.80;;;15.40;76.10;;;;;;4999069;28;20433;-67
2022/03/17 11:08:09;;;;;;;8.02;1.77;;;15.70;73.20;;;;;;5001915;28;20038;-69
2022/03/17 11:10:36;;;;;;;7.95;1.73;;;15.20;71.60;;;;;;5002059;28;20153;-69
2022/03/17 11:13:09;;;;;;;7.13;1.30;;;15.20;74.20;;;;;;5005533;28;20132;-68
2022/03/17 11:15:38;;;;;;;7.33;1.40;;;15.20;70.20;;;;;;5001910;28;20061;-68
2022/03/17 11:18:07;;;;;;;7.63;1.65;;;15.20;71.20;;;;;;5000685;28;20058;-68
2022/03/17 11:20:33;;;;;;;8.02;1.85;;;14.60;70.60;;;;;;4996857;28;21726;-66
2022/03/17 11:23:11;;;;;;;9.35;1.77;;;13.40;71.40;;;;;;4997139;28;20161;-66
2022/03/17 11:25:37;;;;;;;7.85;1.50;;;12.40;73.90;;;;;;4995978;28;20383;-67
2022/03/17 11:28:04;;;;;;;7.05;1.63;;;11.90;76.60;;;;;;4998989;28;20057;-67
2022/03/17 11:30:45;;;;;;;11.63;1.85;;;12.30;78.20;;;;;;4997878;28;20055;-67
2022/03/17 11:33:32;;;;;;;5.80;1.13;;;12.60;75.80;;;;;;4993221;28;20329;-67
2022/03/17 11:36:10;;;;;;;7.10;1.33;;;12.20;75.20;;;;;;4997342;28;20298;-66
2022/03/17 11:38:37;;;;;;;7.47;1.45;;;11.90;75.60;;;;;;4995108;28;20118;-67
2022/03/17 11:41:16;;;;;;;9.32;1.70;;;12.10;76.20;;;;;;4982903;28;20514;-68
2022/03/17 11:43:42;;;;;;;8.63;1.58;;;12.50;75.60;;;;;;4996966;28;20577;-67
2022/03/17 11:46:16;;;;;;;9.02;1.65;;;13.20;75.80;;;;;;4996115;28;20042;-67
2022/03/17 11:48:43;;;;;;;9.63;1.90;;;14.00;72.70;;;;;;4998882;28;20042;-67
2022/03/17 11:51:10;;;;;;;9.23;1.80;;;14.40;71.40;;;;;;4999176;28;20054;-67
2022/03/17 11:53:47;;;;;;;7.03;1.95;;;14.80;71.30;;;;;;4996688;28;20026;-67
2022/03/17 11:56:32;;;;;;;12.35;2.13;;;15.40;69.10;;;;;;4997238;28;20078;-67
2022/03/17 11:58:58;;;;;;;8.15;1.42;;;16.00;66.10;;;;;;4997987;28;20065;-68
2022/03/17 12:01:33;;;;;;;6.85;1.05;;;15.80;65.90;;;;;;4995853;28;20042;-68
2022/03/17 12:04:00;;;;;;;7.53;1.27;;;15.40;61.60;;;;;;5004312;28;20042;-67
2022/03/17 12:06:33;;;;;;;9.73;1.60;;;14.90;61.90;;;;;;4998156;28;20043;-67
2022/03/17 12:09:02;;;;;;;9.82;1.60;;;14.30;65.00;;;;;;5026713;28;20061;-68
2022/03/17 12:11:39;;;;;;;7.22;1.30;;;14.70;65.60;;;;;;4994315;28;20050;-68
2022/03/17 12:14:22;;;;;;;7.68;1.13;;;15.30;64.90;;;;;;5025240;28;20102;-67
2022/03/17 12:17:11;;;;;;;8.57;1.80;;;15.70;63.70;;;;;;4998804;28;20178;-68
2022/03/17 12:19:52;;;;;;;6.55;1.48;;;15.40;59.60;;;;;;4996694;28;20577;-68
2022/03/17 12:22:33;;;;;;;7.35;1.35;;;15.40;62.10;;;;;;4994610;28;20038;-69
2022/03/17 12:25:02;;;;;;;7.00;1.63;;;15.60;62.20;;;;;;5027362;28;20326;-68
2022/03/17 12:27:32;;;;;;;8.15;1.60;;;15.40;61.70;;;;;;4999937;28;20482;-68
2022/03/17 12:30:12;;;;;;;7.55;1.30;;;14.80;64.40;;;;;;4996438;28;20039;-69
2022/03/17 12:32:47;;;;;;;5.47;1.10;;;15.40;65.30;;;;;;5011231;28;20172;-68
2022/03/17 12:35:13;;;;;;;;;;;15.50;59.90;;;;;;5033997;28;20042;-68
2022/03/17 12:37:40;;;;;;;10.93;1.88;;;15.70;59.00;;;;;;5002015;28;19921;-68
2022/03/17 12:40:18;;;;;;;8.48;1.65;;;15.80;60.50;;;;;;5030804;28;20050;-68
2022/03/17 12:42:46;;;;;;;8.82;1.75;;;15.30;61.50;;;;;;5008838;28;20061;-68
2022/03/17 12:45:14;;;;;;;6.35;1.58;;;15.30;62.40;;;;;;5008071;28;20179;-68
2022/03/17 12:47:42;;;;;;;7.40;1.63;;;15.00;61.30;;;;;;5008032;28;20050;-68
2022/03/17 12:50:13;;;;;;;7.63;1.45;;;14.10;62.20;;;;;;5031940;28;20077;-67
2022/03/17 12:52:42;;;;;;;8.57;1.27;;;13.90;63.70;;;;;;5004841;28;20390;-67
2022/03/17 12:55:10;;;;;;;8.70;1.42;;;14.40;63.90;;;;;;5003418;28;20034;-67
2022/03/17 12:57:40;;;;;;;8.00;1.27;;;14.70;61.00;;;;;;5007222;28;20580;-67